Eureka, California
Current Conditions -  °F | °C
As of 2:53 AM on Monday 20 Oct 2014 (Local Time) from KACV Reporting Station
Light Rain Light Rain  
Wind Chill: 57°   Ceiling: 200
Heat Index: 57°   Visibility: 2.5mi
Dew Point: 55°   Wind: 8mph
Humidity: 93%   Direction: 260°W
Pressure: 29.83"   Gusts: NA
Location:  40.8°N, 124.15°W
Report Text: KACV 200953Z AUTO 26007KT 2 1/2SM -RA BR OVC002 14/13 A2983 RMK AO2 SLP105 P0013 T01390128
Loading
Personal Weather Stations






























Interactive Weather Map
Tropical Storm Tracking
New forecast layout! Learn more

10-Day Weather Forecast

Advertisements
Track Severe Weather on mobile